Weather at Redmont Airport

Public forecast

Using degrees Celsius for public forecast. Weather courtesy of forecast.io.

Closest aviation weather report (METAR) to Redmont Airport

Closest report is Port Hedland International Airport, 98.5 nm (182.4 km) NNW.

2024/05/26 21:00 (retrieved 34 minutes ago)

YPPD 262100Z AUTO 18006KT 9999 // NCD 17/05 Q1015 RF000/0000

Closest aviation forecast (TAF) to Redmont Airport

Closest forecast is Port Hedland International Airport, 98.5 nm (182.4 km) NNW.

2024/05/26 18:36 (retrieved 3 hours ago)

TAF YPPD 261701Z 2618/2718 13008KT CAVOK FM270000 10018KT CAVOK BECMG 2704/2705 02014KT CAVOK FM271000 33010KT CAVOK FM271400 21005KT CAVOK